sensor_id;sensor_type;location;lat;lon;timestamp;pressure;altitude;pressure_sealevel;temperature;humidity
9110;BME280;4590;51.462;6.692;2023-04-01T00:01:19;99069.56;;;11.52;74.49
9110;BME280;4590;51.462;6.692;2023-04-01T00:03:45;99064.50;;;11.54;74.43
9110;BME280;4590;51.462;6.692;2023-04-01T00:06:15;99057.28;;;11.49;74.65
9110;BME280;4590;51.462;6.692;2023-04-01T00:08:40;99065.56;;;11.49;74.19
9110;BME280;4590;51.462;6.692;2023-04-01T00:11:06;99061.75;;;11.54;73.99
9110;BME280;4590;51.462;6.692;2023-04-01T00:13:31;99065.53;;;11.34;75.30
9110;BME280;4590;51.462;6.692;2023-04-01T00:15:56;99057.56;;;11.44;74.67
9110;BME280;4590;51.462;6.692;2023-04-01T00:18:22;99059.16;;;11.45;74.62
9110;BME280;4590;51.462;6.692;2023-04-01T00:20:48;99056.06;;;11.47;74.28
9110;BME280;4590;51.462;6.692;2023-04-01T00:23:15;99061.56;;;11.47;74.58
9110;BME280;4590;51.462;6.692;2023-04-01T00:25:41;99049.41;;;11.48;74.23
9110;BME280;4590;51.462;6.692;2023-04-01T00:28:07;99057.28;;;11.49;74.40
9110;BME280;4590;51.462;6.692;2023-04-01T00:30:32;99051.44;;;11.51;74.32
9110;BME280;4590;51.462;6.692;2023-04-01T00:32:58;99055.44;;;11.53;74.33
9110;BME280;4590;51.462;6.692;2023-04-01T00:35:23;99057.75;;;11.51;74.14
9110;BME280;4590;51.462;6.692;2023-04-01T00:37:48;99056.25;;;11.54;74.09
9110;BME280;4590;51.462;6.692;2023-04-01T00:40:31;99061.66;;;11.50;74.29
9110;BME280;4590;51.462;6.692;2023-04-01T00:42:57;99062.19;;;11.56;74.19
9110;BME280;4590;51.462;6.692;2023-04-01T00:45:33;99057.28;;;11.49;74.29
9110;BME280;4590;51.462;6.692;2023-04-01T00:48:03;99056.41;;;11.45;74.72
9110;BME280;4590;51.462;6.692;2023-04-01T00:50:30;99060.31;;;11.44;74.75
9110;BME280;4590;51.462;6.692;2023-04-01T00:52:56;99065.47;;;11.46;74.70
9110;BME280;4590;51.462;6.692;2023-04-01T00:55:23;99062.38;;;11.47;74.61
9110;BME280;4590;51.462;6.692;2023-04-01T00:57:48;99062.34;;;11.32;76.43
9110;BME280;4590;51.462;6.692;2023-04-01T01:00:17;99060.13;;;11.37;74.97
9110;BME280;4590;51.462;6.692;2023-04-01T01:02:44;99051.16;;;11.40;75.16
9110;BME280;4590;51.462;6.692;2023-04-01T01:05:14;99048.75;;;11.39;74.80
9110;BME280;4590;51.462;6.692;2023-04-01T01:07:46;99039.44;;;11.43;75.01
9110;BME280;4590;51.462;6.692;2023-04-01T01:10:22;99044.16;;;11.43;74.75
9110;BME280;4590;51.462;6.692;2023-04-01T01:16:11;99032.06;;;11.32;75.55
9110;BME280;4590;51.462;6.692;2023-04-01T01:18:53;99034.53;;;11.37;74.83
9110;BME280;4590;51.462;6.692;2023-04-01T01:27:13;99037.91;;;11.30;75.21
9110;BME280;4590;51.462;6.692;2023-04-01T01:30:04;99037.00;;;11.26;75.39
9110;BME280;4590;51.462;6.692;2023-04-01T01:32:49;99024.31;;;11.37;74.82
9110;BME280;4590;51.462;6.692;2023-04-01T01:37:59;99031.25;;;11.31;75.02
9110;BME280;4590;51.462;6.692;2023-04-01T01:40:27;99034.19;;;11.38;74.44
9110;BME280;4590;51.462;6.692;2023-04-01T01:42:57;99029.03;;;11.37;74.66
9110;BME280;4590;51.462;6.692;2023-04-01T01:45:26;99033.72;;;11.36;74.50
9110;BME280;4590;51.462;6.692;2023-04-01T01:47:53;99031.44;;;11.38;74.69
9110;BME280;4590;51.462;6.692;2023-04-01T01:50:21;99036.47;;;11.36;74.80
9110;BME280;4590;51.462;6.692;2023-04-01T01:52:46;99031.44;;;11.38;74.50
9110;BME280;4590;51.462;6.692;2023-04-01T01:55:28;99030.81;;;11.29;74.68
9110;BME280;4590;51.462;6.692;2023-04-01T01:58:05;99037.63;;;11.35;74.55
9110;BME280;4590;51.462;6.692;2023-04-01T02:00:33;99033.84;;;11.40;74.39
9110;BME280;4590;51.462;6.692;2023-04-01T02:03:00;99043.25;;;11.39;74.24
9110;BME280;4590;51.462;6.692;2023-04-01T02:05:27;99028.66;;;11.38;74.31
9110;BME280;4590;51.462;6.692;2023-04-01T02:08:05;99028.22;;;11.36;74.74
9110;BME280;4590;51.462;6.692;2023-04-01T02:10:36;99037.28;;;11.37;74.70
9110;BME280;4590;51.462;6.692;2023-04-01T02:13:07;99035.78;;;11.39;74.34
9110;BME280;4590;51.462;6.692;2023-04-01T02:15:40;99041.75;;;11.41;74.35
9110;BME280;4590;51.462;6.692;2023-04-01T02:18:08;99046.34;;;11.37;74.49
9110;BME280;4590;51.462;6.692;2023-04-01T02:20:34;99040.84;;;11.37;74.22
9110;BME280;4590;51.462;6.692;2023-04-01T02:23:01;99051.56;;;11.27;75.06
9110;BME280;4590;51.462;6.692;2023-04-01T02:25:29;99050.25;;;11.36;74.60
9110;BME280;4590;51.462;6.692;2023-04-01T02:27:57;99051.84;;;11.37;74.35
9110;BME280;4590;51.462;6.692;2023-04-01T02:30:24;99061.25;;;11.36;74.53
9110;BME280;4590;51.462;6.692;2023-04-01T02:32:51;99056.56;;;11.37;74.23
9110;BME280;4590;51.462;6.692;2023-04-01T02:35:17;99061.25;;;11.36;74.67
9110;BME280;4590;51.462;6.692;2023-04-01T02:37:43;99059.72;;;11.23;76.19
9110;BME280;4590;51.462;6.692;2023-04-01T02:40:11;99062.75;;;11.34;74.69
9110;BME280;4590;51.462;6.692;2023-04-01T02:42:37;99066.31;;;11.34;74.64
9110;BME280;4590;51.462;6.692;2023-04-01T02:45:03;99064.38;;;11.35;74.86
9110;BME280;4590;51.462;6.692;2023-04-01T02:47:29;99069.06;;;11.34;74.89
9110;BME280;4590;51.462;6.692;2023-04-01T02:49:54;99069.06;;;11.34;74.88
9110;BME280;4590;51.462;6.692;2023-04-01T02:52:27;99072.72;;;11.38;74.77
9110;BME280;4590;51.462;6.692;2023-04-01T02:54:53;99079.03;;;11.39;74.85
9110;BME280;4590;51.462;6.692;2023-04-01T02:57:18;99067.69;;;11.40;74.92
9110;BME280;4590;51.462;6.692;2023-04-01T02:59:43;99074.69;;;11.38;75.18
9110;BME280;4590;51.462;6.692;2023-04-01T03:02:09;99071.13;;;11.37;75.51
9110;BME280;4590;51.462;6.692;2023-04-01T03:04:34;99071.13;;;11.37;75.36
9110;BME280;4590;51.462;6.692;2023-04-01T03:07:00;99070.25;;;11.33;75.66
9110;BME280;4590;51.462;6.692;2023-04-01T03:09:25;99076.19;;;11.35;75.50
9110;BME280;4590;51.462;6.692;2023-04-01T03:11:50;99074.97;;;11.33;75.82
9110;BME280;4590;51.462;6.692;2023-04-01T03:14:16;99079.28;;;11.34;75.31
9110;BME280;4590;51.462;6.692;2023-04-01T03:16:41;99075.31;;;11.31;75.90
9110;BME280;4590;51.462;6.692;2023-04-01T03:19:06;99080.47;;;11.33;75.54
9110;BME280;4590;51.462;6.692;2023-04-01T03:21:32;99082.84;;;11.34;75.33
9110;BME280;4590;51.462;6.692;2023-04-01T03:23:57;99091.91;;;11.35;75.72
9110;BME280;4590;51.462;6.692;2023-04-01T03:26:23;99082.03;;;11.34;75.63
9110;BME280;4590;51.462;6.692;2023-04-01T03:28:49;99084.03;;;11.33;75.56
9110;BME280;4590;51.462;6.692;2023-04-01T03:31:14;99088.34;;;11.34;75.60
9110;BME280;4590;51.462;6.692;2023-04-01T03:33:40;99093.22;;;11.25;76.94
9110;BME280;4590;51.462;6.692;2023-04-01T03:36:06;99082.84;;;11.34;75.92
9110;BME280;4590;51.462;6.692;2023-04-01T03:38:33;99089.06;;;11.31;76.03
9110;BME280;4590;51.462;6.692;2023-04-01T03:40:59;99087.94;;;11.32;75.65
9110;BME280;4590;51.462;6.692;2023-04-01T03:43:24;99092.28;;;11.33;75.94
9110;BME280;4590;51.462;6.692;2023-04-01T03:45:51;99093.50;;;11.36;75.60
9110;BME280;4590;51.462;6.692;2023-04-01T03:48:16;99093.50;;;11.36;75.55
9110;BME280;4590;51.462;6.692;2023-04-01T03:50:42;99094.31;;;11.36;75.39
9110;BME280;4590;51.462;6.692;2023-04-01T03:53:08;99100.97;;;11.35;75.85
9110;BME280;4590;51.462;6.692;2023-04-01T03:55:35;99105.31;;;11.36;75.35
9110;BME280;4590;51.462;6.692;2023-04-01T03:58:01;99090.41;;;11.37;75.94
9110;BME280;4590;51.462;6.692;2023-04-01T04:00:28;99100.63;;;11.37;75.94
9110;BME280;4590;51.462;6.692;2023-04-01T04:02:54;99095.91;;;11.37;75.90
9110;BME280;4590;51.462;6.692;2023-04-01T04:05:22;99100.63;;;11.37;75.94
9110;BME280;4590;51.462;6.692;2023-04-01T04:07:47;99092.28;;;11.33;76.20
9110;BME280;4590;51.462;6.692;2023-04-01T04:10:12;99102.91;;;11.35;75.87
9110;BME280;4590;51.462;6.692;2023-04-01T04:12:38;99108.06;;;11.36;76.07
9110;BME280;4590;51.462;6.692;2023-04-01T04:15:03;99097.50;;;11.38;75.61
9110;BME280;4590;51.462;6.692;2023-04-01T04:17:29;99102.56;;;11.36;75.75
9110;BME280;4590;51.462;6.692;2023-04-01T04:19:54;99106.47;;;11.35;75.96
9110;BME280;4590;51.462;6.692;2023-04-01T04:22:19;99113.13;;;11.34;75.97
9110;BME280;4590;51.462;6.692;2023-04-01T04:24:45;99119.44;;;11.35;75.59
9110;BME280;4590;51.462;6.692;2023-04-01T04:27:10;99114.38;;;11.37;76.04
9110;BME280;4590;51.462;6.692;2023-04-01T04:29:35;99116.69;;;11.35;75.98
9110;BME280;4590;51.462;6.692;2023-04-01T04:32:00;99119.44;;;11.35;76.19
9110;BME280;4590;51.462;6.692;2023-04-01T04:34:26;99120.25;;;11.35;75.89
9110;BME280;4590;51.462;6.692;2023-04-01T04:36:51;99116.69;;;11.35;76.21
9110;BME280;4590;51.462;6.692;2023-04-01T04:39:16;99123.00;;;11.35;76.14
9110;BME280;4590;51.462;6.692;2023-04-01T04:41:42;99121.03;;;11.36;76.18
9110;BME280;4590;51.462;6.692;2023-04-01T04:44:07;99126.56;;;11.36;76.19
9110;BME280;4590;51.462;6.692;2023-04-01T04:46:33;99130.09;;;11.36;76.11
9110;BME280;4590;51.462;6.692;2023-04-01T04:48:58;99132.41;;;11.34;75.87
9110;BME280;4590;51.462;6.692;2023-04-01T04:51:24;99119.44;;;11.35;76.34
9110;BME280;4590;51.462;6.692;2023-04-01T04:53:50;99117.94;;;11.37;75.96
9110;BME280;4590;51.462;6.692;2023-04-01T04:56:19;99131.59;;;11.34;76.19
9110;BME280;4590;51.462;6.692;2023-04-01T04:58:45;99135.16;;;11.34;76.41
9110;BME280;4590;51.462;6.692;2023-04-01T05:01:13;99129.66;;;11.34;76.37
9110;BME280;4590;51.462;6.692;2023-04-01T05:03:38;99126.09;;;11.34;76.21
9110;BME280;4590;51.462;6.692;2023-04-01T05:06:04;99128.09;;;11.33;76.04
9110;BME280;4590;51.462;6.692;2023-04-01T05:08:30;99129.34;;;11.23;77.67
9110;BME280;4590;51.462;6.692;2023-04-01T05:10:55;99134.63;;;11.29;76.48
9110;BME280;4590;51.462;6.692;2023-04-01T05:13:21;99136.69;;;11.32;76.04
9110;BME280;4590;51.462;6.692;2023-04-01T05:15:46;99137.84;;;11.31;76.36
9110;BME280;4590;51.462;6.692;2023-04-01T05:18:11;99138.19;;;11.29;76.25
9110;BME280;4590;51.462;6.692;2023-04-01T05:20:37;99141.41;;;11.31;76.29
9110;BME280;4590;51.462;6.692;2023-04-01T05:23:03;99138.19;;;11.29;76.46
9110;BME280;4590;51.462;6.692;2023-04-01T05:25:28;99139.44;;;11.32;76.50
9110;BME280;4590;51.462;6.692;2023-04-01T05:27:53;99144.16;;;11.31;76.37
9110;BME280;4590;51.462;6.692;2023-04-01T05:30:19;99146.91;;;11.31;76.40
9110;BME280;4590;51.462;6.692;2023-04-01T05:32:45;99149.31;;;11.33;75.98
9110;BME280;4590;51.462;6.692;2023-04-01T05:35:10;99156.38;;;11.34;76.03
9110;BME280;4590;51.462;6.692;2023-04-01T05:37:36;99147.78;;;11.35;76.06
9110;BME280;4590;51.462;6.692;2023-04-01T05:40:02;99153.28;;;11.35;76.16
9110;BME280;4590;51.462;6.692;2023-04-01T05:42:28;99156.38;;;11.34;76.43
9110;BME280;4590;51.462;6.692;2023-04-01T05:44:53;99157.13;;;11.31;76.54
9110;BME280;4590;51.462;6.692;2023-04-01T05:47:18;99151.50;;;11.27;76.78
9110;BME280;4590;51.462;6.692;2023-04-01T05:49:43;99154.69;;;11.29;76.54
9110;BME280;4590;51.462;6.692;2023-04-01T05:52:09;99157.13;;;11.31;76.35
9110;BME280;4590;51.462;6.692;2023-04-01T05:54:34;99164.56;;;11.30;76.33
9110;BME280;4590;51.462;6.692;2023-04-01T05:57:00;99162.63;;;11.31;76.48
9110;BME280;4590;51.462;6.692;2023-04-01T05:59:25;99168.13;;;11.31;76.54
9110;BME280;4590;51.462;6.692;2023-04-01T06:01:50;99159.53;;;11.32;76.57
9110;BME280;4590;51.462;6.692;2023-04-01T06:04:17;99160.31;;;11.33;76.45
9110;BME280;4590;51.462;6.692;2023-04-01T06:06:43;99170.16;;;11.34;76.35
9110;BME280;4590;51.462;6.692;2023-04-01T06:09:29;99165.25;;;11.27;76.69
9110;BME280;4590;51.462;6.692;2023-04-01T06:17:51;99175.00;;;11.24;76.81
9110;BME280;4590;51.462;6.692;2023-04-01T06:20:25;99179.03;;;11.27;76.69
9110;BME280;4590;51.462;6.692;2023-04-01T06:28:07;99175.59;;;11.30;76.73
9110;BME280;4590;51.462;6.692;2023-04-01T06:37:09;99188.44;;;11.26;76.98
9110;BME280;4590;51.462;6.692;2023-04-01T06:39:59;99187.28;;;11.27;76.65
9110;BME280;4590;51.462;6.692;2023-04-01T06:50:30;99196.47;;;11.31;77.07
9110;BME280;4590;51.462;6.692;2023-04-01T06:53:09;99196.91;;;11.33;76.55
9110;BME280;4590;51.462;6.692;2023-04-01T06:56:02;99203.47;;;11.29;76.89
9110;BME280;4590;51.462;6.692;2023-04-01T06:58:35;99191.75;;;11.32;76.55
9110;BME280;4590;51.462;6.692;2023-04-01T07:03:40;99199.28;;;11.35;77.13
9110;BME280;4590;51.462;6.692;2023-04-01T07:08:43;99210.31;;;11.35;77.02
9110;BME280;4590;51.462;6.692;2023-04-01T07:11:16;99205.19;;;11.33;76.94
9110;BME280;4590;51.462;6.692;2023-04-01T07:16:36;99207.56;;;11.35;76.94
9110;BME280;4590;51.462;6.692;2023-04-01T07:21:55;99221.31;;;11.35;77.08
9110;BME280;4590;51.462;6.692;2023-04-01T07:24:27;99227.97;;;11.34;77.16
9110;BME280;4590;51.462;6.692;2023-04-01T07:26:56;99221.44;;;11.38;76.61
9110;BME280;4590;51.462;6.692;2023-04-01T07:29:22;99231.53;;;11.34;76.77
9110;BME280;4590;51.462;6.692;2023-04-01T08:04:38;99276.16;;;11.40;77.38
9110;BME280;4590;51.462;6.692;2023-04-01T08:07:17;99278.59;;;11.41;77.23
9110;BME280;4590;51.462;6.692;2023-04-01T08:10:23;99288.00;;;11.40;77.71
9110;BME280;4590;51.462;6.692;2023-04-01T08:13:07;99287.31;;;11.43;77.43
9110;BME280;4590;51.462;6.692;2023-04-01T08:15:49;99294.41;;;11.44;77.24
9110;BME280;4590;51.462;6.692;2023-04-01T08:21:24;99303.22;;;11.50;77.20
9110;BME280;4590;51.462;6.692;2023-04-01T08:23:56;99301.03;;;11.55;77.06
9110;BME280;4590;51.462;6.692;2023-04-01T08:26:38;99309.31;;;11.55;77.30
9110;BME280;4590;51.462;6.692;2023-04-01T08:29:13;99314.47;;;11.57;77.36
9110;BME280;4590;51.462;6.692;2023-04-01T08:31:48;99307.00;;;11.57;77.04
9110;BME280;4590;51.462;6.692;2023-04-01T08:34:18;99321.69;;;11.62;77.00
9110;BME280;4590;51.462;6.692;2023-04-01T08:36:50;99319.75;;;11.62;76.87
9110;BME280;4590;51.462;6.692;2023-04-01T08:39:33;99322.16;;;11.64;77.17
9110;BME280;4590;51.462;6.692;2023-04-01T08:48:06;99335.56;;;11.65;77.38
9110;BME280;4590;51.462;6.692;2023-04-01T08:50:52;99335.44;;;11.74;77.31
9110;BME280;4590;51.462;6.692;2023-04-01T08:54:02;99333.72;;;11.69;77.55
9110;BME280;4590;51.462;6.692;2023-04-01T08:56:50;99335.00;;;11.72;77.16
9110;BME280;4590;51.462;6.692;2023-04-01T09:08:07;99342.91;;;11.85;77.11
9110;BME280;4590;51.462;6.692;2023-04-01T09:11:04;99352.09;;;11.89;77.07
9110;BME280;4590;51.462;6.692;2023-04-01T09:21:46;99357.84;;;12.12;77.49
9110;BME280;4590;51.462;6.692;2023-04-01T09:24:24;99363.47;;;12.16;77.20
9110;BME280;4590;51.462;6.692;2023-04-01T09:27:05;99357.16;;;12.15;77.11
9110;BME280;4590;51.462;6.692;2023-04-01T09:32:38;99364.41;;;12.20;76.98
9110;BME280;4590;51.462;6.692;2023-04-01T09:35:38;99374.63;;;12.19;77.25
9110;BME280;4590;51.462;6.692;2023-04-01T09:40:55;99385.06;;;12.26;76.95
9110;BME280;4590;51.462;6.692;2023-04-01T09:46:16;99399.28;;;12.28;76.75
9110;BME280;4590;51.462;6.692;2023-04-01T09:49:15;99395.28;;;12.25;76.91
9110;BME280;4590;51.462;6.692;2023-04-01T09:52:03;99391.38;;;12.26;76.61
9110;BME280;4590;51.462;6.692;2023-04-01T10:16:10;99419.03;;;12.30;77.09
9110;BME280;4590;51.462;6.692;2023-04-01T10:24:12;99423.53;;;12.35;77.05
9110;BME280;4590;51.462;6.692;2023-04-01T10:27:10;99423.16;;;12.36;77.14
9110;BME280;4590;51.462;6.692;2023-04-01T10:56:39;99457.72;;;12.58;76.99
9110;BME280;4590;51.462;6.692;2023-04-01T11:14:11;99466.38;;;13.00;76.57
9110;BME280;4590;51.462;6.692;2023-04-01T11:17:01;99473.84;;;12.99;75.93
9110;BME280;4590;51.462;6.692;2023-04-01T11:58:22;99523.63;;;12.75;76.44
9110;BME280;4590;51.462;6.692;2023-04-01T12:04:00;99526.34;;;12.87;76.62
9110;BME280;4590;51.462;6.692;2023-04-01T12:12:11;99536.09;;;12.97;77.01
9110;BME280;4590;51.462;6.692;2023-04-01T12:17:48;99541.66;;;13.13;76.93
9110;BME280;4590;51.462;6.692;2023-04-01T12:20:28;99548.13;;;13.17;76.34
9110;BME280;4590;51.462;6.692;2023-04-01T12:23:13;99548.56;;;13.19;76.55
9110;BME280;4590;51.462;6.692;2023-04-01T12:26:22;99552.69;;;13.13;76.45
9110;BME280;4590;51.462;6.692;2023-04-01T12:35:01;99560.69;;;13.02;76.07
9110;BME280;4590;51.462;6.692;2023-04-01T12:43:18;99565.75;;;13.00;75.84
9110;BME280;4590;51.462;6.692;2023-04-01T12:46:31;99568.53;;;13.00;75.88
9110;BME280;4590;51.462;6.692;2023-04-01T12:57:03;99600.25;;;13.18;76.00
9110;BME280;4590;51.462;6.692;2023-04-01T13:08:09;99610.91;;;13.32;74.93
9110;BME280;4590;51.462;6.692;2023-04-01T13:10:46;99606.88;;;13.29;74.85
9110;BME280;4590;51.462;6.692;2023-04-01T13:16:31;99617.03;;;13.13;74.65
9110;BME280;4590;51.462;6.692;2023-04-01T13:19:28;99625.81;;;13.03;74.90
9110;BME280;4590;51.462;6.692;2023-04-01T13:22:20;99623.84;;;13.04;74.97
9110;BME280;4590;51.462;6.692;2023-04-01T13:32:34;99626.28;;;12.93;75.45
9110;BME280;4590;51.462;6.692;2023-04-01T13:40:39;99641.63;;;12.90;75.80
9110;BME280;4590;51.462;6.692;2023-04-01T13:43:18;99637.47;;;12.84;75.62
9110;BME280;4590;51.462;6.692;2023-04-01T13:56:57;99645.66;;;12.69;76.31
9110;BME280;4590;51.462;6.692;2023-04-01T13:59:48;99646.94;;;12.71;76.03
9110;BME280;4590;51.462;6.692;2023-04-01T14:02:36;99661.06;;;12.70;76.14
9110;BME280;4590;51.462;6.692;2023-04-01T14:05:38;99661.75;;;12.67;76.26
9110;BME280;4590;51.462;6.692;2023-04-01T14:19:50;99678.44;;;12.70;76.92
9110;BME280;4590;51.462;6.692;2023-04-01T14:25:18;99692.78;;;12.76;76.42
9110;BME280;4590;51.462;6.692;2023-04-01T14:31:23;99693.59;;;12.76;76.64
9110;BME280;4590;51.462;6.692;2023-04-01T14:50:29;99711.31;;;12.75;76.29
9110;BME280;4590;51.462;6.692;2023-04-01T14:53:16;99713.19;;;12.71;76.15
9110;BME280;4590;51.462;6.692;2023-04-01T14:55:54;99717.53;;;12.72;76.35
9110;BME280;4590;51.462;6.692;2023-04-01T14:58:22;99725.03;;;12.72;76.41
9110;BME280;4590;51.462;6.692;2023-04-01T15:03:39;99727.31;;;12.70;76.28
9110;BME280;4590;51.462;6.692;2023-04-01T15:09:32;99734.19;;;12.63;76.62
9110;BME280;4590;51.462;6.692;2023-04-01T15:12:42;99741.22;;;12.61;76.57
9110;BME280;4590;51.462;6.692;2023-04-01T15:24:14;99748.69;;;12.60;76.68
9110;BME280;4590;51.462;6.692;2023-04-01T15:35:46;99759.84;;;12.76;76.97
9110;BME280;4590;51.462;6.692;2023-04-01T15:38:37;99762.84;;;12.83;77.03
9110;BME280;4590;51.462;6.692;2023-04-01T15:43:49;99771.81;;;13.05;77.34
9110;BME280;4590;51.462;6.692;2023-04-01T15:57:14;99783.28;;;13.55;76.33
9110;BME280;4590;51.462;6.692;2023-04-01T16:10:56;99800.84;;;13.35;75.13
9110;BME280;4590;51.462;6.692;2023-04-01T16:24:10;99819.69;;;13.09;75.36
9110;BME280;4590;51.462;6.692;2023-04-01T16:27:27;99823.16;;;13.06;75.40
9110;BME280;4590;51.462;6.692;2023-04-01T16:30:01;99832.25;;;13.06;75.66
9110;BME280;4590;51.462;6.692;2023-04-01T16:35:45;99838.00;;;13.01;75.64
9110;BME280;4590;51.462;6.692;2023-04-01T16:47:58;99856.16;;;12.90;75.44
9110;BME280;4590;51.462;6.692;2023-04-01T16:50:58;99859.13;;;12.85;75.76
9110;BME280;4590;51.462;6.692;2023-04-01T16:53:34;99859.94;;;12.85;75.56
9110;BME280;4590;51.462;6.692;2023-04-01T17:01:21;99868.78;;;12.79;75.89
9110;BME280;4590;51.462;6.692;2023-04-01T17:37:23;99923.09;;;12.54;76.40
9110;BME280;4590;51.462;6.692;2023-04-01T17:50:02;99936.44;;;12.52;76.20
9110;BME280;4590;51.462;6.692;2023-04-01T17:56:21;99946.06;;;12.46;76.30
9110;BME280;4590;51.462;6.692;2023-04-01T17:58:58;99948.94;;;12.49;76.20
9110;BME280;4590;51.462;6.692;2023-04-01T18:07:56;99958.22;;;12.45;76.29
9110;BME280;4590;51.462;6.692;2023-04-01T18:10:57;99963.66;;;12.41;76.24
9110;BME280;4590;51.462;6.692;2023-04-01T18:14:07;99959.38;;;12.44;76.54
9110;BME280;4590;51.462;6.692;2023-04-01T18:19:50;99975.34;;;12.38;76.35
9110;BME280;4590;51.462;6.692;2023-04-01T18:22:44;99978.91;;;12.39;76.28
9110;BME280;4590;51.462;6.692;2023-04-01T18:32:13;99995.19;;;12.32;76.93
9110;BME280;4590;51.462;6.692;2023-04-01T18:54:05;100039.97;;;12.28;77.07
9110;BME280;4590;51.462;6.692;2023-04-01T19:17:32;100075.19;;;12.02;77.69
9110;BME280;4590;51.462;6.692;2023-04-01T19:25:58;100092.91;;;11.92;77.46
9110;BME280;4590;51.462;6.692;2023-04-01T19:28:31;100103.31;;;11.87;77.74
9110;BME280;4590;51.462;6.692;2023-04-01T19:37:51;100111.31;;;11.80;77.78
9110;BME280;4590;51.462;6.692;2023-04-01T19:43:35;100121.16;;;11.72;77.62
9110;BME280;4590;51.462;6.692;2023-04-01T19:46:33;100130.91;;;11.70;77.38
9110;BME280;4590;51.462;6.692;2023-04-01T19:49:21;100127.84;;;11.63;77.41
9110;BME280;4590;51.462;6.692;2023-04-01T19:52:29;100134.53;;;11.44;77.82
9110;BME280;4590;51.462;6.692;2023-04-01T20:01:57;100159.66;;;11.43;77.16
9110;BME280;4590;51.462;6.692;2023-04-01T20:04:48;100164.34;;;11.42;77.05
9110;BME280;4590;51.462;6.692;2023-04-01T20:07:32;100165.81;;;11.31;77.32
9110;BME280;4590;51.462;6.692;2023-04-01T20:10:19;100185.25;;;11.43;77.15
9110;BME280;4590;51.462;6.692;2023-04-01T20:19:35;100200.97;;;11.25;76.94
9110;BME280;4590;51.462;6.692;2023-04-01T20:22:05;100209.91;;;11.31;76.78
9110;BME280;4590;51.462;6.692;2023-04-01T20:24:51;100219.59;;;11.20;77.33
9110;BME280;4590;51.462;6.692;2023-04-01T20:27:30;100228.03;;;11.23;76.58
9110;BME280;4590;51.462;6.692;2023-04-01T20:30:34;100237.59;;;11.17;76.45
9110;BME280;4590;51.462;6.692;2023-04-01T20:39:03;100249.56;;;11.13;76.47
9110;BME280;4590;51.462;6.692;2023-04-01T20:41:58;100258.47;;;11.10;76.39
9110;BME280;4590;51.462;6.692;2023-04-01T20:48:05;100265.53;;;10.85;76.56
9110;BME280;4590;51.462;6.692;2023-04-01T20:57:05;100290.31;;;10.94;76.10
9110;BME280;4590;51.462;6.692;2023-04-01T20:59:52;100306.97;;;10.88;75.81
9110;BME280;4590;51.462;6.692;2023-04-01T21:02:47;100303.09;;;10.89;75.87
9110;BME280;4590;51.462;6.692;2023-04-01T21:15:31;100326.22;;;10.80;75.35
9110;BME280;4590;51.462;6.692;2023-04-01T21:23:31;100346.13;;;10.77;75.92
9110;BME280;4590;51.462;6.692;2023-04-01T21:35:07;100367.69;;;10.52;75.42
